Elwood, IN

6:20 AM EDT on October 25, 2014 (GMT -0400)
Rydman and Fox, Inc. | Change Station
CLOSE
Current Station
Personal Weather Station
Location: Anderson, IN
Elevation: 875 ft
Nearby Weather Stations

Elev 875 ft 40.19 °N, 85.75 °W | Updated 7 seconds ago

Overcast
Overcast
55.4 °F
Feels Like 55.4 °F
N
5.0
Wind Variable Wind from SW
Gusts 8.0 mph

Today
High -- | Low -- °F
--% Chance of Precip.
Yesterday
High -- | Low -- °F
Precip. -- in
8:04 AM 6:49 PM
New Moon, 2% visible
Pressure 29.94 in
Visibility 7.0 miles
Clouds Overcast 3700 ft
Dew Point 52 °F
Humidity 89%
Rainfall 0.00 in
Snow Depth Not available.
UV 0 out of 12
Pollen 1.20 out of 12
Air Quality Not available.
Flu Activity Not available.
METAR KMZZ 250955Z AUTO 19005KT 7SM OVC037 12/10 A2994 RMK AO2 T01160100

More Conditions Fewer Conditions

Pressure 29.94 in
Visibility 7.0 miles
Clouds Overcast 3700 ft
Dew Point 52 °F
Humidity 89%
Rainfall 0.00 in
Snow Depth Not available.
UV 0 out of 12
Pollen 1.20 out of 12
Air Quality Not available.
Flu Activity Not available.
METAR KMZZ 250955Z AUTO 19005KT 7SM OVC037 12/10 A2994 RMK AO2 T01160100

More Conditions Fewer Conditions

10-Day Weather Forecast

Almanac

Astronomy

Oct. 25, 2014 Rise Set
Actual Time 8:04 AM EDT 6:49 PM EDT
Civil Twilight 7:37 AM EDT 7:17 PM EDT
Nautical Twilight 7:05 AM EDT 7:48 PM EDT
Astronomical Twilight 6:33 AM EDT 8:20 PM EDT
Moon 9:43 AM EDT 8:11 PM EDT
Length of Visible Light 11h 39m
Length of Day
10h 44m
Tomorrow will be 2m 27s shorter.
New Moon, 2% of the Moon is Illuminated
Today
New Moon
Oct 30
First Quarter
Nov 6
Full
Nov 14
Last Quarter
Nov 22
New

Today's Extremes

State Highs State Lows

Community

WunderPhotos

Upload Photos

1,764,806 photos uploaded!

Nearby

Snow Depth

Station Depth Elevation
No new snow has been reported.

Earthquake Activity

City Distance Mag. Time & Date
No recent earthquake activity has been reported nearby.
Minimum magnitude displayed is 2.5.

Coastal Water Temperatures

Place Temperature
No Stations Reporting

Nearby Weather Stations